createdAt,value
2019-03-20T00:00:05.789Z,101820.02
2019-03-20T00:02:52.187Z,101823.78
2019-03-20T00:05:38.366Z,101828.59
2019-03-20T00:08:24.679Z,101831.75
2019-03-20T00:11:11.195Z,101832.38
2019-03-20T00:13:57.088Z,101836.92
2019-03-20T00:16:43.265Z,101829.03
2019-03-20T00:19:30.012Z,101828.94
2019-03-20T00:22:16.027Z,101828.06
2019-03-20T00:25:03.786Z,101831.75
2019-03-20T00:27:50.634Z,101838.17
2019-03-20T00:30:36.790Z,101834.16
2019-03-20T00:33:22.881Z,101833.26
2019-03-20T00:36:09.315Z,101829.87
2019-03-20T00:38:55.531Z,101832.79
2019-03-20T00:41:42.235Z,101823.84
2019-03-20T00:44:28.943Z,101834.31
2019-03-20T00:47:15.164Z,101824.80
2019-03-20T00:50:01.575Z,101820.48
2019-03-20T00:52:47.767Z,101818.25
2019-03-20T00:55:33.978Z,101814.28
2019-03-20T00:58:20.591Z,101813.14
2019-03-20T01:01:07.511Z,101810.79
2019-03-20T01:03:53.927Z,101809.01
2019-03-20T01:06:39.831Z,101804.98
2019-03-20T01:09:26.548Z,101805.37
2019-03-20T01:12:12.861Z,101806.94
2019-03-20T01:14:59.575Z,101811.98
2019-03-20T01:17:46.849Z,101808.00
2019-03-20T01:20:32.911Z,101808.89
2019-03-20T01:23:19.117Z,101814.98
2019-03-20T01:26:05.226Z,101814.98
2019-03-20T01:28:51.326Z,101811.80
2019-03-20T01:31:38.052Z,101820.55
2019-03-20T01:34:24.679Z,101812.19
2019-03-20T01:37:10.676Z,101813.14
2019-03-20T01:39:57.318Z,101811.05
2019-03-20T01:42:44.296Z,101813.94
2019-03-20T01:45:30.291Z,101817.05
2019-03-20T01:48:16.487Z,101818.12
2019-03-20T01:51:22.755Z,101821.70
2019-03-20T01:54:09.260Z,101823.52
2019-03-20T01:56:54.947Z,101820.77
2019-03-20T01:59:41.672Z,101819.77
2019-03-20T02:02:27.771Z,101815.98
2019-03-20T02:05:14.559Z,101813.47
2019-03-20T02:08:01.499Z,101819.40
2019-03-20T02:10:47.538Z,101826.23
2019-03-20T02:13:33.588Z,101820.98
2019-03-20T02:16:21.498Z,101824.33
2019-03-20T02:19:08.010Z,101831.23
2019-03-20T02:21:54.424Z,101835.59
2019-03-20T02:24:40.847Z,101835.59
2019-03-20T02:27:29.727Z,101828.38
2019-03-20T02:30:16.316Z,101818.80
2019-03-20T02:33:03.191Z,101818.80
2019-03-20T02:35:51.786Z,101822.92
2019-03-20T02:38:37.942Z,101820.13
2019-03-20T02:41:24.534Z,101820.13
2019-03-20T02:44:10.929Z,101825.68
2019-03-20T02:46:57.025Z,101816.83
2019-03-20T02:49:43.926Z,101816.83
2019-03-20T02:52:30.248Z,101818.05
2019-03-20T02:55:16.571Z,101814.88
2019-03-20T02:58:03.525Z,101814.88
2019-03-20T03:00:50.019Z,101823.80
2019-03-20T03:03:36.127Z,101819.90
2019-03-20T03:06:22.848Z,101819.90
2019-03-20T03:09:10.203Z,101816.63
2019-03-20T03:11:56.498Z,101823.84
2019-03-20T03:14:42.939Z,101824.98
2019-03-20T03:17:30.616Z,101822.95
2019-03-20T03:20:17.017Z,101819.77
2019-03-20T03:23:03.417Z,101825.70
2019-03-20T03:25:50.321Z,101827.38
2019-03-20T03:28:36.591Z,101827.05
2019-03-20T03:31:22.997Z,101824.59
2019-03-20T03:34:09.650Z,101827.25
2019-03-20T03:36:56.016Z,101823.81
2019-03-20T03:39:42.316Z,101824.82
2019-03-20T03:42:28.489Z,101830.92
2019-03-20T03:45:16.907Z,101835.09
2019-03-20T03:48:03.103Z,101835.09
2019-03-20T03:50:49.231Z,101837.56
2019-03-20T03:53:35.709Z,101834.02
2019-03-20T03:56:22.356Z,101834.69
2019-03-20T03:59:08.790Z,101835.77
2019-03-20T04:01:55.642Z,101835.50
2019-03-20T04:04:41.581Z,101841.46
2019-03-20T04:07:28.926Z,101836.61
2019-03-20T04:10:15.288Z,101836.61
2019-03-20T04:13:01.816Z,101828.70
2019-03-20T04:15:48.427Z,101828.70
2019-03-20T04:18:35.749Z,101830.78
2019-03-20T04:21:21.693Z,101834.09
2019-03-20T04:24:07.630Z,101836.21
2019-03-20T04:26:54.438Z,101833.45
2019-03-20T04:29:40.535Z,101833.01
2019-03-20T04:32:26.643Z,101833.01
2019-03-20T04:35:14.486Z,101835.09
2019-03-20T04:38:00.599Z,101835.16
2019-03-20T04:40:46.497Z,101839.31
2019-03-20T04:43:33.017Z,101835.20
2019-03-20T04:46:19.537Z,101834.93
2019-03-20T04:49:05.637Z,101839.17
2019-03-20T04:51:52.595Z,101833.28
2019-03-20T04:54:40.132Z,101835.73
2019-03-20T04:57:26.429Z,101843.16
2019-03-20T05:00:14.709Z,101843.16
2019-03-20T05:03:01.176Z,101844.29
2019-03-20T05:05:47.541Z,101844.48
2019-03-20T05:08:33.961Z,101842.61
2019-03-20T05:11:20.388Z,101840.72
2019-03-20T05:14:06.507Z,101840.72
2019-03-20T05:16:52.734Z,101837.83
2019-03-20T05:19:39.407Z,101843.48
2019-03-20T05:22:26.060Z,101836.61
2019-03-20T05:25:12.001Z,101852.11
2019-03-20T05:27:58.529Z,101852.11
2019-03-20T05:30:44.856Z,101852.62
2019-03-20T05:33:31.255Z,101848.98
2019-03-20T05:36:17.906Z,101868.73
2019-03-20T05:39:06.480Z,101868.73
2019-03-20T05:41:53.450Z,101858.28
2019-03-20T05:44:42.040Z,101863.61
2019-03-20T05:47:28.666Z,101860.81
2019-03-20T05:50:16.924Z,101862.27
2019-03-20T05:53:03.827Z,101869.14
2019-03-20T05:55:51.111Z,101872.81
2019-03-20T05:58:39.291Z,101881.20
2019-03-20T06:01:25.768Z,101882.86
2019-03-20T06:04:11.457Z,101884.23
2019-03-20T06:06:57.567Z,101888.88
2019-03-20T06:09:45.043Z,101892.34
2019-03-20T06:12:31.128Z,101909.00
2019-03-20T06:15:17.928Z,101903.52
2019-03-20T06:18:04.272Z,101900.01
2019-03-20T06:20:52.585Z,101900.84
2019-03-20T06:23:39.065Z,101903.59
2019-03-20T06:26:25.673Z,101900.67
2019-03-20T06:29:11.477Z,101905.70
2019-03-20T06:31:58.281Z,101895.41
2019-03-20T06:34:44.270Z,101902.64
2019-03-20T06:37:32.827Z,101903.05
2019-03-20T06:40:18.989Z,101905.06
2019-03-20T06:43:05.103Z,101911.87
2019-03-20T06:45:51.297Z,101908.12
2019-03-20T06:48:37.869Z,101909.78
2019-03-20T06:51:24.000Z,101911.20
2019-03-20T06:54:10.101Z,101912.52
2019-03-20T06:56:56.698Z,101915.78
2019-03-20T07:00:35.530Z,101917.94
2019-03-20T07:04:15.718Z,101913.19
2019-03-20T07:07:12.469Z,101919.48
2019-03-20T07:10:17.986Z,101921.81
2019-03-20T07:13:03.978Z,101917.02
2019-03-20T07:15:50.380Z,101912.72
2019-03-20T07:18:36.953Z,101920.66
2019-03-20T07:21:23.658Z,101910.83
2019-03-20T07:24:10.204Z,101917.42
2019-03-20T07:26:56.417Z,101915.98
2019-03-20T07:29:42.833Z,101919.21
2019-03-20T07:32:30.174Z,101924.09
2019-03-20T07:35:17.096Z,101926.95
2019-03-20T07:38:02.997Z,101934.02
2019-03-20T07:40:59.101Z,101928.70
2019-03-20T07:43:56.910Z,101933.38
2019-03-20T07:46:43.453Z,101933.18
2019-03-20T07:49:29.621Z,101937.30
2019-03-20T07:52:15.921Z,101929.33
2019-03-20T07:55:02.113Z,101931.38
2019-03-20T07:57:49.033Z,101927.98
2019-03-20T08:00:35.432Z,101934.30
2019-03-20T08:03:21.534Z,101933.84
2019-03-20T08:06:08.073Z,101946.20
2019-03-20T08:08:53.829Z,101953.06
2019-03-20T08:11:39.983Z,101961.61
2019-03-20T08:14:26.383Z,101955.69
2019-03-20T08:17:13.546Z,101960.59
2019-03-20T08:19:59.721Z,101967.52
2019-03-20T08:22:47.917Z,101970.84
2019-03-20T08:25:34.867Z,101980.37
2019-03-20T08:28:21.378Z,101980.90
2019-03-20T08:31:07.809Z,101975.44
2019-03-20T08:33:54.189Z,101973.41
2019-03-20T08:36:40.083Z,101978.81
2019-03-20T08:39:26.558Z,101980.75
2019-03-20T08:42:12.830Z,101985.47
2019-03-20T08:44:58.882Z,101984.42
2019-03-20T08:47:45.760Z,101993.53
2019-03-20T08:50:31.901Z,101983.55
2019-03-20T08:53:17.998Z,101976.78
2019-03-20T08:56:04.789Z,101977.48
2019-03-20T08:58:51.018Z,101981.76
2019-03-20T09:01:37.287Z,101984.12
2019-03-20T09:04:24.300Z,101985.42
2019-03-20T09:07:10.298Z,101982.95
2019-03-20T09:09:56.374Z,101990.39
2019-03-20T09:12:42.797Z,101990.27
2019-03-20T09:15:28.889Z,101991.59
2019-03-20T09:18:15.108Z,101995.26
2019-03-20T09:21:01.958Z,101999.13
2019-03-20T09:23:48.726Z,102004.47
2019-03-20T09:26:34.738Z,101997.08
2019-03-20T09:29:21.275Z,102000.10
2019-03-20T09:32:07.310Z,101996.39
2019-03-20T09:34:53.647Z,102002.17
2019-03-20T09:37:50.941Z,101999.23
2019-03-20T09:40:28.571Z,101994.89
2019-03-20T09:43:14.654Z,101993.11
2019-03-20T09:46:01.270Z,101996.19
2019-03-20T09:48:47.230Z,101999.68
2019-03-20T09:51:33.367Z,101996.46
2019-03-20T09:54:20.991Z,102000.06
2019-03-20T09:57:07.289Z,101999.63
2019-03-20T09:59:53.396Z,101989.95
2019-03-20T10:02:39.692Z,101988.73
2019-03-20T10:05:25.686Z,101994.78
2019-03-20T10:08:11.988Z,101987.55
2019-03-20T10:10:58.128Z,101975.45
2019-03-20T10:13:44.195Z,101994.51
2019-03-20T10:16:31.098Z,101988.38
2019-03-20T10:19:16.991Z,101990.11
2019-03-20T10:22:03.599Z,101982.44
2019-03-20T10:24:51.312Z,101989.19
2019-03-20T10:27:39.662Z,101981.83
2019-03-20T10:30:26.004Z,101983.09
2019-03-20T10:33:12.484Z,101987.75
2019-03-20T10:35:58.681Z,101992.20
2019-03-20T10:38:44.883Z,101988.50
2019-03-20T10:41:31.678Z,101991.74
2019-03-20T10:44:18.401Z,101992.57
2019-03-20T10:47:04.904Z,101993.98
2019-03-20T10:49:51.616Z,101996.96
2019-03-20T10:52:37.301Z,101991.64
2019-03-20T10:55:23.720Z,101996.08
2019-03-20T10:58:10.531Z,102004.91
2019-03-20T11:00:57.334Z,102005.59
2019-03-20T11:03:43.629Z,102009.56
2019-03-20T11:06:30.066Z,102014.13
2019-03-20T11:09:18.505Z,102011.69
2019-03-20T11:12:04.284Z,102017.92
2019-03-20T11:14:50.189Z,102018.07
2019-03-20T11:17:36.780Z,102016.20
2019-03-20T11:20:23.591Z,102012.16
2019-03-20T11:23:09.475Z,102008.09
2019-03-20T11:25:55.676Z,102007.83
2019-03-20T11:28:41.984Z,102004.13
2019-03-20T11:31:28.475Z,102008.25
2019-03-20T11:34:15.428Z,102001.95
2019-03-20T11:37:01.581Z,102001.14
2019-03-20T11:39:47.579Z,101999.86
2019-03-20T11:42:34.281Z,102007.05
2019-03-20T11:45:19.906Z,102008.31
2019-03-20T11:48:05.655Z,102014.13
2019-03-20T11:50:52.366Z,102020.03
2019-03-20T11:53:38.874Z,102016.37
2019-03-20T11:56:25.146Z,102014.93
2019-03-20T11:59:11.577Z,102021.68
2019-03-20T12:01:57.673Z,102022.78
2019-03-20T12:04:43.565Z,102011.25
2019-03-20T12:07:30.518Z,102025.59
2019-03-20T12:10:18.708Z,102020.20
2019-03-20T12:13:05.328Z,102015.88
2019-03-20T12:15:52.032Z,102017.80
2019-03-20T12:18:38.841Z,102018.97
2019-03-20T12:21:24.843Z,102020.69
2019-03-20T12:24:11.858Z,102022.32
2019-03-20T12:26:58.173Z,102022.38
2019-03-20T12:29:43.957Z,102019.86
2019-03-20T12:32:32.961Z,102031.01
2019-03-20T12:35:19.909Z,102015.34
2019-03-20T12:38:14.296Z,102022.91
2019-03-20T12:40:54.744Z,102019.72
2019-03-20T12:43:41.017Z,102025.30
2019-03-20T12:46:40.949Z,102027.94
2019-03-20T12:49:17.080Z,102027.52
2019-03-20T12:52:03.483Z,102039.30
2019-03-20T12:54:50.297Z,102039.03
2019-03-20T12:57:37.010Z,102036.58
2019-03-20T13:00:22.800Z,102036.06
2019-03-20T13:03:09.741Z,102047.59
2019-03-20T13:05:55.709Z,102035.73
2019-03-20T13:08:41.904Z,102044.38
2019-03-20T13:11:30.649Z,102048.01
2019-03-20T13:14:17.733Z,102039.07
2019-03-20T13:17:03.656Z,102033.77
2019-03-20T13:19:50.116Z,102033.41
2019-03-20T13:22:35.981Z,102039.36
2019-03-20T13:25:22.277Z,102036.58
2019-03-20T13:28:08.981Z,102030.88
2019-03-20T13:30:58.448Z,102034.71
2019-03-20T13:33:44.656Z,102032.24
2019-03-20T13:36:31.464Z,102040.30
2019-03-20T13:39:17.592Z,102035.58
2019-03-20T13:42:03.872Z,102038.73
2019-03-20T13:44:49.658Z,102039.25
2019-03-20T13:47:36.026Z,102037.17
2019-03-20T13:50:22.728Z,102038.84
2019-03-20T13:53:08.689Z,102035.17
2019-03-20T13:55:54.550Z,102039.62
2019-03-20T13:58:42.088Z,102035.39
2019-03-20T14:01:28.181Z,102044.99
2019-03-20T14:04:14.265Z,102039.50
2019-03-20T14:07:00.860Z,102039.94
2019-03-20T14:09:47.093Z,102034.28
2019-03-20T14:12:33.584Z,102043.90
2019-03-20T14:15:20.377Z,102037.56
2019-03-20T14:18:06.473Z,102038.30
2019-03-20T14:20:52.517Z,102034.73
2019-03-20T14:23:39.074Z,102030.19
2019-03-20T14:26:24.921Z,102029.02
2019-03-20T14:29:11.879Z,102032.55
2019-03-20T14:32:00.021Z,102026.61
2019-03-20T14:34:46.693Z,102024.38
2019-03-20T14:37:33.092Z,102018.66
2019-03-20T14:40:21.784Z,102022.45
2019-03-20T14:43:08.263Z,102024.80
2019-03-20T14:45:54.351Z,102023.76
2019-03-20T14:48:41.098Z,102028.95
2019-03-20T14:51:28.623Z,102024.52
2019-03-20T14:54:14.898Z,102023.63
2019-03-20T14:57:00.917Z,102026.16
2019-03-20T14:59:47.320Z,102023.19
2019-03-20T15:02:33.325Z,102024.59
2019-03-20T15:05:19.509Z,102014.65
2019-03-20T15:08:06.529Z,102018.20
2019-03-20T15:10:52.833Z,102020.84
2019-03-20T15:13:38.721Z,102018.72
2019-03-20T15:16:25.893Z,102024.41
2019-03-20T15:19:11.829Z,102013.52
2019-03-20T15:21:59.744Z,102017.53
2019-03-20T15:24:45.767Z,102009.32
2019-03-20T15:27:31.857Z,102005.11
2019-03-20T15:30:19.141Z,102013.33
2019-03-20T15:33:05.654Z,102010.41
2019-03-20T15:35:59.186Z,102008.00
2019-03-20T15:38:52.693Z,102012.01
2019-03-20T15:41:39.849Z,102004.38
2019-03-20T15:44:27.072Z,102010.91
2019-03-20T15:47:13.159Z,102008.86
2019-03-20T15:50:00.989Z,102010.88
2019-03-20T15:52:47.719Z,102012.30
2019-03-20T15:55:34.004Z,102006.87
2019-03-20T15:58:22.470Z,102006.58
2019-03-20T16:01:09.670Z,101997.95
2019-03-20T16:03:55.731Z,101999.17
2019-03-20T16:06:42.372Z,101999.36
2019-03-20T16:09:29.147Z,102004.78
2019-03-20T16:12:15.274Z,101999.80
2019-03-20T16:15:01.490Z,102002.45
2019-03-20T16:17:47.837Z,102003.92
2019-03-20T16:20:33.663Z,102006.73
2019-03-20T16:23:20.148Z,102008.94
2019-03-20T16:26:06.609Z,102005.87
2019-03-20T16:28:55.119Z,102006.79
2019-03-20T16:31:55.010Z,102004.58
2019-03-20T16:34:50.872Z,101999.32
2019-03-20T16:37:48.667Z,102005.72
2019-03-20T16:40:35.626Z,102001.54
2019-03-20T16:43:21.587Z,101998.48
2019-03-20T16:46:10.031Z,101994.42
2019-03-20T16:48:56.327Z,102003.81
2019-03-20T16:51:42.019Z,101991.02
2019-03-20T16:54:28.970Z,101995.92
2019-03-20T16:57:14.819Z,101996.08
2019-03-20T17:00:01.055Z,101994.45
2019-03-20T17:02:47.436Z,102012.06
2019-03-20T17:05:33.527Z,102009.67
2019-03-20T17:08:19.520Z,102014.23
2019-03-20T17:11:06.331Z,102017.75
2019-03-20T17:13:52.048Z,102023.78
2019-03-20T17:16:42.793Z,102023.59
2019-03-20T17:19:26.252Z,102022.27
2019-03-20T17:22:12.351Z,102027.30
2019-03-20T17:24:59.040Z,102023.23
2019-03-20T17:27:45.147Z,102034.08
2019-03-20T17:30:33.072Z,102030.50
2019-03-20T17:33:19.492Z,102027.00
2019-03-20T17:36:05.484Z,102029.03
2019-03-20T17:38:51.786Z,102027.86
2019-03-20T17:41:40.543Z,102027.03
2019-03-20T17:44:26.459Z,102021.09
2019-03-20T17:47:14.108Z,102024.88
2019-03-20T17:50:00.430Z,102025.77
2019-03-20T17:52:46.493Z,102023.95
2019-03-20T17:55:33.229Z,102022.87
2019-03-20T17:58:19.789Z,102022.31
2019-03-20T18:01:06.811Z,102022.56
2019-03-20T18:03:52.982Z,102021.34
2019-03-20T18:06:39.456Z,102019.06
2019-03-20T18:09:26.017Z,102028.86
2019-03-20T18:12:12.017Z,102029.59
2019-03-20T18:14:58.369Z,102027.98
2019-03-20T18:17:44.607Z,102036.11
2019-03-20T18:20:30.393Z,102035.66
2019-03-20T18:23:19.468Z,102037.27
2019-03-20T18:26:05.458Z,102052.14
2019-03-20T18:28:51.669Z,102066.09
2019-03-20T18:31:45.768Z,102071.78
2019-03-20T18:34:27.425Z,102065.46
2019-03-20T18:37:13.825Z,102076.05
2019-03-20T18:40:00.545Z,102069.86
2019-03-20T18:42:46.419Z,102073.45
2019-03-20T18:45:32.509Z,102067.14
2019-03-20T18:48:20.245Z,102073.41
2019-03-20T18:51:06.509Z,102075.16
2019-03-20T18:53:53.278Z,102078.41
2019-03-20T18:56:39.560Z,102076.00
2019-03-20T18:59:25.877Z,102073.24
2019-03-20T19:02:12.567Z,102069.75
2019-03-20T19:04:58.870Z,102080.08
2019-03-20T19:07:45.298Z,102076.97
2019-03-20T19:10:32.500Z,102083.77
2019-03-20T19:13:20.135Z,102083.92
2019-03-20T19:16:06.236Z,102082.51
2019-03-20T19:18:52.914Z,102082.34
2019-03-20T19:21:39.349Z,102092.35
2019-03-20T19:24:25.566Z,102092.38
2019-03-20T19:27:12.172Z,102096.42
2019-03-20T19:29:58.253Z,102095.28
2019-03-20T19:32:45.077Z,102103.39
2019-03-20T19:35:45.166Z,102100.67
2019-03-20T19:38:35.101Z,102102.04
2019-03-20T19:41:21.065Z,102097.69
2019-03-20T19:44:07.262Z,102099.92
2019-03-20T19:46:53.257Z,102106.09
2019-03-20T19:49:39.558Z,102106.69
2019-03-20T19:52:25.541Z,102110.05
2019-03-20T19:55:13.581Z,102112.29
2019-03-20T19:57:59.988Z,102112.26
2019-03-20T20:00:46.178Z,102112.32
2019-03-20T20:03:32.383Z,102107.02
2019-03-20T20:06:22.028Z,102105.59
2019-03-20T20:09:08.687Z,102106.78
2019-03-20T20:11:54.666Z,102104.06
2019-03-20T20:14:41.649Z,102099.56
2019-03-20T20:17:27.989Z,102092.77
2019-03-20T20:20:16.290Z,102097.02
2019-03-20T20:23:04.378Z,102089.41
2019-03-20T20:25:50.487Z,102092.02
2019-03-20T20:28:37.824Z,102086.77
2019-03-20T20:31:24.087Z,102087.70
2019-03-20T20:34:09.978Z,102088.84
2019-03-20T20:36:58.020Z,102094.72
2019-03-20T20:39:44.631Z,102094.33
2019-03-20T20:42:42.593Z,102104.33
2019-03-20T20:45:21.963Z,102102.27
2019-03-20T20:48:08.449Z,102103.52
2019-03-20T20:50:55.061Z,102107.19
2019-03-20T20:53:41.907Z,102094.34
2019-03-20T20:56:27.755Z,102093.74
2019-03-20T20:59:14.555Z,102097.30
2019-03-20T21:02:01.465Z,102096.36
2019-03-20T21:04:47.875Z,102099.96
2019-03-20T21:07:34.903Z,102093.20
2019-03-20T21:10:21.186Z,102089.83
2019-03-20T21:13:08.511Z,102085.31
2019-03-20T21:15:58.527Z,102086.95
2019-03-20T21:19:30.877Z,102086.59
2019-03-20T21:23:00.484Z,102083.46
2019-03-20T21:25:49.342Z,102088.73
2019-03-20T21:29:33.094Z,102083.12
2019-03-20T21:32:36.706Z,102088.70
2019-03-20T21:36:06.170Z,102089.60
2019-03-20T21:38:54.779Z,102082.14
2019-03-20T21:42:28.371Z,102086.16
2019-03-20T21:45:39.551Z,102090.11
2019-03-20T21:48:27.080Z,102080.64
2019-03-20T21:51:15.686Z,102090.39
2019-03-20T21:54:41.357Z,102084.31
2019-03-20T21:58:07.585Z,102095.65
2019-03-20T22:01:44.887Z,102086.73
2019-03-20T22:04:31.696Z,102084.78
2019-03-20T22:07:18.722Z,102088.92
2019-03-20T22:10:43.619Z,102087.27
2019-03-20T22:13:39.965Z,102093.94
2019-03-20T22:17:09.782Z,102095.97
2019-03-20T22:20:17.731Z,102091.72
2019-03-20T22:23:29.983Z,102098.56
2019-03-20T22:26:41.527Z,102103.63
2019-03-20T22:29:28.332Z,102103.45
2019-03-20T22:33:10.094Z,102097.16
2019-03-20T22:36:03.747Z,102108.75
2019-03-20T22:39:29.598Z,102112.03
2019-03-20T22:42:36.175Z,102109.59
2019-03-20T22:45:57.491Z,102103.55
2019-03-20T22:49:13.179Z,102103.87
2019-03-20T22:52:29.380Z,102109.56
2019-03-20T22:55:53.667Z,102107.47
2019-03-20T22:58:44.086Z,102109.57
2019-03-20T23:13:52.863Z,102104.16
2019-03-20T23:16:39.986Z,102110.38
2019-03-20T23:19:26.019Z,102110.05
2019-03-20T23:22:13.151Z,102112.13
2019-03-20T23:24:59.490Z,102116.59
2019-03-20T23:27:45.719Z,102108.30
2019-03-20T23:30:32.102Z,102107.01
2019-03-20T23:33:18.682Z,102113.12
2019-03-20T23:36:05.104Z,102121.05
2019-03-20T23:38:51.011Z,102120.69
2019-03-20T23:41:37.222Z,102116.20
2019-03-20T23:44:24.058Z,102112.77
2019-03-20T23:47:10.375Z,102114.57
2019-03-20T23:49:56.286Z,102116.71
2019-03-20T23:52:42.478Z,102117.07
2019-03-20T23:55:28.686Z,102127.39
2019-03-20T23:58:15.280Z,102127.19
